Time;durP1;ratioP1;P1;durP2;ratioP2;P2;SDS_P1;SDS_P2;PMS_P1;PMS_P2;Temp;Humidity;BMP_temperature;BMP_pressure;BME280_temperature;BME280_humidity;BME280_pressure;Samples;Min_cycle;Max_cycle;Signal;HPM_P1;HPM_P2
2023/10/25 00:00:34;;;;;;;3.20;2.85;;;;;;;18.88;70.76;98407.34;4474521;32;34469;-79
2023/10/25 00:03:02;;;;;;;0.20;0.20;;;;;;;18.73;71.08;98416.06;4472312;32;34536;-78
2023/10/25 00:05:33;;;;;;;30.33;2.47;;;;;;;18.89;71.02;98410.88;4472630;32;33277;-79
2023/10/25 00:08:00;;;;;;;5.18;2.80;;;;;;;19.00;70.46;98410.66;4473460;32;34131;-79
2023/10/25 00:10:28;;;;;;;4.75;2.37;;;;;;;18.90;70.75;98412.56;4472925;32;33189;-78
2023/10/25 00:13:00;;;;;;;0.73;0.73;;;;;;;19.00;70.45;98394.59;4457725;32;32455;-79
2023/10/25 00:15:27;;;;;;;5.68;1.45;;;;;;;18.77;71.51;98393.37;4476247;32;33931;-79
2023/10/25 00:17:55;;;;;;;5.37;1.60;;;;;;;18.92;70.67;98387.34;4460657;32;33964;-78
2023/10/25 00:20:23;;;;;;;2.42;1.20;;;;;;;19.07;70.46;98384.94;4455167;32;33715;-78
2023/10/25 00:22:50;;;;;;;3.22;1.77;;;;;;;19.13;69.93;98384.34;4461623;32;32674;-79
2023/10/25 00:25:18;;;;;;;4.78;0.95;;;;;;;18.97;70.60;98383.34;4474321;32;32169;-78
2023/10/25 00:27:46;;;;;;;1.42;1.33;;;;;;;18.68;71.82;98379.94;4473035;32;33210;-78
2023/10/25 00:30:13;;;;;;;8.13;2.15;;;;;;;19.05;70.75;98376.25;4473423;32;33147;-78
2023/10/25 00:32:42;;;;;;;1.87;1.05;;;;;;;19.10;70.09;98376.63;4462007;32;33417;-78
2023/10/25 00:35:10;;;;;;;1.20;1.20;;;;;;;18.91;70.97;98366.94;4469931;32;33926;-79
2023/10/25 00:37:38;;;;;;;0.98;0.95;;;;;;;18.91;71.16;98374.12;4477077;32;34888;-78
2023/10/25 00:40:07;;;;;;;8.00;1.65;;;;;;;18.79;71.73;98365.47;4475493;32;33304;-79
2023/10/25 00:42:35;;;;;;;7.82;1.85;;;;;;;19.01;70.68;98366.00;4462062;32;33202;-78
2023/10/25 00:45:03;;;;;;;1.48;1.27;;;;;;;19.11;70.09;98356.88;4477131;32;33591;-78
2023/10/25 00:47:30;;;;;;;2.17;1.55;;;;;;;19.05;70.48;98365.53;4473992;32;34021;-78
2023/10/25 00:49:58;;;;;;;1.05;0.95;;;;;;;18.67;72.13;98366.69;4462337;32;32800;-78
2023/10/25 00:52:27;;;;;;;4.22;2.55;;;;;;;19.01;70.91;98358.81;4462991;32;33749;-78
2023/10/25 00:54:55;;;;;;;1.70;1.25;;;;;;;18.76;72.05;98371.16;4448789;32;33369;-78
2023/10/25 00:57:23;;;;;;;7.12;1.83;;;;;;;18.95;70.97;98354.09;4463213;32;33658;-78
2023/10/25 00:59:51;;;;;;;0.75;0.75;;;;;;;19.18;70.01;98338.38;4475954;32;33941;-79
2023/10/25 01:02:19;;;;;;;3.55;1.05;;;;;;;18.83;71.18;98344.63;4477001;32;33472;-79
2023/10/25 01:04:48;;;;;;;7.32;0.52;;;;;;;18.76;72.20;98343.59;4459825;32;34754;-79
2023/10/25 01:07:16;;;;;;;1.37;0.25;;;;;;;18.58;72.57;98336.38;4474329;32;33546;-79
2023/10/25 01:09:44;;;;;;;0.70;0.70;;;;;;;18.59;72.44;98326.50;4474620;32;33648;-79
2023/10/25 01:12:12;;;;;;;12.65;1.55;;;;;;;18.65;72.16;98307.19;4461929;32;32942;-79
2023/10/25 01:14:40;;;;;;;1.95;1.33;;;;;;;19.14;70.39;98284.34;4466606;32;34363;-79
2023/10/25 01:17:07;;;;;;;0.82;0.43;;;;;;;19.13;70.29;98281.81;4451900;32;33063;-79
2023/10/25 01:19:35;;;;;;;0.57;0.57;;;;;;;19.25;69.63;98269.00;4474045;32;33663;-80
2023/10/25 01:22:03;;;;;;;6.53;2.30;;;;;;;19.10;69.72;98261.56;4475151;32;34670;-79
2023/10/25 01:24:31;;;;;;;1.00;0.95;;;;;;;19.14;69.82;98264.78;4476145;32;34642;-79
2023/10/25 01:27:00;;;;;;;6.22;2.12;;;;;;;18.99;70.39;98269.88;4461838;32;33150;-79
2023/10/25 01:29:27;;;;;;;1.08;0.93;;;;;;;19.06;70.39;98262.87;4478761;32;34371;-79
2023/10/25 01:31:55;;;;;;;0.70;0.70;;;;;;;19.06;69.77;98265.56;4463303;32;33590;-79
2023/10/25 01:34:23;;;;;;;1.23;1.00;;;;;;;19.33;69.29;98255.69;4466299;32;33734;-79
2023/10/25 01:36:51;;;;;;;4.93;1.17;;;;;;;19.35;69.07;98243.81;4461147;32;34483;-79
2023/10/25 01:39:19;;;;;;;25.10;0.98;;;;;;;19.13;69.71;98239.87;4464784;32;33352;-79
2023/10/25 01:41:47;;;;;;;2.15;1.80;;;;;;;18.78;71.20;98258.69;4472489;32;35192;-79
2023/10/25 01:44:14;;;;;;;2.35;1.50;;;;;;;19.06;70.29;98254.84;4461115;32;34003;-81
2023/10/25 01:46:42;;;;;;;1.65;1.00;;;;;;;18.93;70.35;98254.44;4451044;32;33415;-79
2023/10/25 01:49:10;;;;;;;4.03;2.25;;;;;;;18.90;70.77;98260.12;4457194;32;32665;-79
2023/10/25 01:51:37;;;;;;;0.98;0.98;;;;;;;19.10;70.05;98248.19;4461783;32;33208;-79
2023/10/25 01:54:06;;;;;;;0.40;0.40;;;;;;;18.63;71.52;98264.56;4462296;32;33004;-79
2023/10/25 01:56:33;;;;;;;0.45;0.37;;;;;;;19.07;70.20;98250.34;4461244;32;34360;-79
2023/10/25 01:59:01;;;;;;;1.45;1.10;;;;;;;18.99;70.14;98253.84;4471938;32;33192;-79
2023/10/25 02:01:29;;;;;;;1.70;1.02;;;;;;;19.00;70.17;98242.13;4472279;32;34730;-80
2023/10/25 02:03:57;;;;;;;1.12;1.00;;;;;;;19.26;69.28;98235.91;4476799;32;33909;-79
2023/10/25 02:06:26;;;;;;;2.47;0.93;;;;;;;18.89;70.71;98237.03;4474734;32;34340;-79
2023/10/25 02:08:54;;;;;;;2.12;0.88;;;;;;;18.92;70.39;98242.91;4477667;32;35822;-79
2023/10/25 02:11:23;;;;;;;1.52;1.17;;;;;;;18.94;70.56;98245.41;4477532;32;33939;-79
2023/10/25 02:13:50;;;;;;;1.25;0.90;;;;;;;18.99;70.33;98240.47;4472198;32;32130;-79
2023/10/25 02:16:18;;;;;;;2.25;1.42;;;;;;;18.91;70.59;98237.72;4464872;32;33051;-79
2023/10/25 02:18:46;;;;;;;3.17;0.45;;;;;;;18.90;70.58;98238.72;4476408;32;33615;-79
2023/10/25 02:21:14;;;;;;;2.95;1.02;;;;;;;18.94;70.60;98240.06;4474884;32;33917;-78
2023/10/25 02:23:42;;;;;;;0.65;0.65;;;;;;;18.91;70.62;98240.41;4461531;32;34100;-79
2023/10/25 02:26:10;;;;;;;2.40;1.85;;;;;;;19.02;70.18;98237.44;4476797;32;34205;-79
2023/10/25 02:28:38;;;;;;;1.12;1.05;;;;;;;19.20;69.33;98229.34;4474538;32;33672;-79
2023/10/25 02:31:05;;;;;;;12.60;1.20;;;;;;;19.31;68.95;98222.88;4472884;32;33027;-79
2023/10/25 02:33:35;;;;;;;5.05;2.17;;;;;;;19.10;69.66;98221.44;4463061;32;33924;-79
2023/10/25 02:36:04;;;;;;;0.82;0.82;;;;;;;19.08;69.73;98226.09;4460480;32;33867;-79
2023/10/25 02:38:31;;;;;;;0.62;0.45;;;;;;;19.04;70.05;98218.59;4462797;32;32611;-79
2023/10/25 02:40:59;;;;;;;1.40;0.95;;;;;;;19.11;69.54;98220.44;4474290;32;33903;-80
2023/10/25 02:43:27;;;;;;;0.43;0.43;;;;;;;19.02;70.03;98210.69;4462847;32;33663;-79
2023/10/25 02:46:02;;;;;;;6.93;0.60;;;;;;;18.93;70.32;98217.84;4474415;32;34078;-79
2023/10/25 02:48:30;;;;;;;1.33;1.23;;;;;;;18.98;70.25;98212.00;4460541;32;32183;-79
2023/10/25 02:51:02;;;;;;;5.28;2.40;;;;;;;18.89;70.63;98215.63;4464473;32;33876;-79
2023/10/25 02:53:30;;;;;;;1.62;1.12;;;;;;;19.10;69.85;98216.09;4463074;32;34725;-79
2023/10/25 02:56:03;;;;;;;8.45;1.77;;;;;;;19.01;70.15;98217.03;4460159;32;34699;-80
2023/10/25 02:58:31;;;;;;;6.65;1.20;;;;;;;19.15;69.71;98205.75;4460408;32;33626;-79
2023/10/25 03:00:59;;;;;;;0.85;0.85;;;;;;;19.28;69.07;98188.44;4464356;32;33431;-79
2023/10/25 03:03:28;;;;;;;0.85;0.85;;;;;;;18.82;70.56;98183.34;4475413;32;34083;-80
2023/10/25 03:05:56;;;;;;;1.75;1.55;;;;;;;19.02;69.81;98189.28;4462274;32;34855;-79
2023/10/25 03:08:26;;;;;;;3.87;1.23;;;;;;;18.80;70.81;98184.47;4460965;32;33945;-79
2023/10/25 03:10:56;;;;;;;0.80;0.45;;;;;;;18.75;71.38;98186.81;4472973;32;33784;-79
2023/10/25 03:13:24;;;;;;;2.10;0.52;;;;;;;18.79;71.58;98188.16;4459996;32;35622;-79
2023/10/25 03:15:53;;;;;;;0.22;0.22;;;;;;;18.76;71.22;98193.84;4463338;32;33509;-79
2023/10/25 03:18:21;;;;;;;0.28;0.28;;;;;;;19.05;69.67;98202.37;4458640;32;34400;-79
2023/10/25 03:20:49;;;;;;;0.30;0.30;;;;;;;18.82;70.58;98209.25;4471662;32;33518;-79
2023/10/25 03:23:17;;;;;;;1.85;1.73;;;;;;;18.76;71.32;98217.91;4473876;32;33308;-79
2023/10/25 03:25:44;;;;;;;0.22;0.22;;;;;;;18.45;73.11;98223.66;4460187;32;34128;-80
2023/10/25 03:28:12;;;;;;;3.00;0.22;;;;;;;18.29;70.56;98258.28;4476787;32;32180;-78
2023/10/25 03:30:40;;;;;;;0.35;0.35;;;;;;;18.03;69.32;98264.34;4459411;32;32529;-79
2023/10/25 03:33:07;;;;;;;0.20;0.20;;;;;;;17.66;69.95;98270.63;4461933;32;33933;-79
2023/10/25 03:35:36;;;;;;;0.00;0.00;;;;;;;17.39;70.50;98279.44;4455688;32;32905;-79
2023/10/25 03:38:03;;;;;;;0.65;0.43;;;;;;;16.94;72.55;98273.97;4472779;32;33215;-79
2023/10/25 03:40:31;;;;;;;0.00;0.00;;;;;;;17.34;69.94;98275.56;4476148;32;34279;-79
2023/10/25 03:42:59;;;;;;;0.40;0.40;;;;;;;16.75;72.92;98276.69;4462416;32;35224;-79
2023/10/25 03:45:27;;;;;;;0.43;0.43;;;;;;;16.91;71.71;98276.97;4474582;32;33631;-79
2023/10/25 03:47:54;;;;;;;0.30;0.30;;;;;;;16.46;73.74;98263.37;4473924;32;33453;-79
2023/10/25 03:50:24;;;;;;;3.30;0.82;;;;;;;16.79;71.32;98278.09;4462939;32;33828;-80
2023/10/25 03:52:52;;;;;;;0.35;0.35;;;;;;;16.22;74.78;98280.63;4456976;32;101546;-79
2023/10/25 03:55:20;;;;;;;0.60;0.60;;;;;;;16.23;74.41;98290.28;4461417;32;35444;-79
2023/10/25 03:57:49;;;;;;;0.55;0.55;;;;;;;16.43;73.07;98285.00;4474093;32;34883;-79
2023/10/25 04:00:17;;;;;;;1.05;1.00;;;;;;;16.23;74.17;98284.13;4476641;32;33880;-80
2023/10/25 04:02:45;;;;;;;0.40;0.40;;;;;;;16.03;75.06;98300.09;4474127;32;32936;-79
2023/10/25 04:05:13;;;;;;;3.53;1.55;;;;;;;15.93;75.03;98299.22;4471676;32;33871;-79
2023/10/25 04:07:41;;;;;;;3.03;0.70;;;;;;;16.21;74.26;98297.59;4475996;32;33151;-79
2023/10/25 04:10:09;;;;;;;1.23;0.88;;;;;;;16.50;72.90;98297.59;4478640;32;33105;-79
2023/10/25 04:12:37;;;;;;;0.10;0.10;;;;;;;16.67;71.31;98304.03;4457196;32;33041;-79
2023/10/25 04:15:05;;;;;;;0.95;0.90;;;;;;;16.35;72.99;98310.50;4450087;32;33970;-79
2023/10/25 04:17:33;;;;;;;1.83;1.60;;;;;;;16.43;72.98;98320.47;4451394;32;32713;-79
2023/10/25 04:20:01;;;;;;;1.27;1.17;;;;;;;16.49;72.55;98317.22;4475096;32;33827;-79
2023/10/25 04:22:29;;;;;;;1.33;1.27;;;;;;;16.47;72.87;98321.84;4452809;32;34389;-79
2023/10/25 04:24:57;;;;;;;2.58;0.35;;;;;;;16.45;72.57;98322.97;4474246;32;34305;-79
2023/10/25 04:27:25;;;;;;;3.22;0.68;;;;;;;16.22;73.60;98331.22;4472435;32;34365;-79
2023/10/25 04:29:53;;;;;;;0.22;0.22;;;;;;;16.20;74.31;98335.84;4461676;32;33823;-79
2023/10/25 04:32:21;;;;;;;3.20;1.30;;;;;;;16.29;73.13;98336.84;4458076;32;33951;-80
2023/10/25 04:34:48;;;;;;;1.48;0.73;;;;;;;15.97;74.62;98340.56;4461671;32;34223;-79
2023/10/25 04:37:16;;;;;;;0.50;0.22;;;;;;;16.19;73.34;98336.84;4460266;32;33674;-79
2023/10/25 04:39:44;;;;;;;2.10;1.05;;;;;;;16.34;72.11;98337.28;4474001;32;33482;-79
2023/10/25 04:42:12;;;;;;;0.68;0.68;;;;;;;15.79;74.51;98355.50;4472316;32;33557;-79
2023/10/25 04:44:39;;;;;;;0.45;0.45;;;;;;;15.88;73.69;98344.06;4459289;32;33781;-79
2023/10/25 04:47:07;;;;;;;1.20;1.10;;;;;;;15.64;74.61;98352.38;4463016;32;35945;-79
2023/10/25 04:49:36;;;;;;;0.55;0.55;;;;;;;15.78;73.98;98349.34;4458259;32;34553;-79
2023/10/25 04:52:03;;;;;;;1.75;0.68;;;;;;;16.03;73.29;98355.16;4471084;32;33369;-79
2023/10/25 04:54:31;;;;;;;0.65;0.45;;;;;;;15.93;73.31;98357.78;4458576;32;32355;-79
2023/10/25 04:56:59;;;;;;;2.95;1.95;;;;;;;16.10;72.83;98365.13;4470949;32;33759;-79
2023/10/25 04:59:29;;;;;;;0.30;0.30;;;;;;;16.10;72.91;98365.13;4456186;32;34287;-78
2023/10/25 05:01:57;;;;;;;0.20;0.20;;;;;;;15.99;73.06;98362.56;4469909;32;33681;-78
2023/10/25 05:04:25;;;;;;;2.42;0.82;;;;;;;15.60;74.15;98373.06;4473146;32;34345;-78
2023/10/25 05:06:53;;;;;;;0.65;0.65;;;;;;;15.74;74.34;98379.03;4472423;32;33941;-79
2023/10/25 05:09:21;;;;;;;0.43;0.43;;;;;;;15.52;74.79;98383.50;4471723;32;34572;-79
2023/10/25 05:11:56;;;;;;;0.20;0.20;;;;;;;15.33;74.79;98381.62;4457567;32;33809;-79
2023/10/25 05:14:24;;;;;;;0.10;0.10;;;;;;;15.51;74.65;98388.97;4457757;32;33749;-79
2023/10/25 05:16:52;;;;;;;0.15;0.10;;;;;;;15.45;74.80;98393.00;4471048;32;32484;-79
2023/10/25 05:19:19;;;;;;;1.12;0.95;;;;;;;15.48;74.24;98392.75;4458763;32;31889;-79
2023/10/25 05:21:50;;;;;;;1.20;0.93;;;;;;;15.51;74.06;98394.28;4448311;32;32736;-78
2023/10/25 05:24:18;;;;;;;0.30;0.30;;;;;;;15.55;74.49;98404.53;4460428;32;33418;-78
2023/10/25 05:26:46;;;;;;;1.75;1.25;;;;;;;15.55;73.59;98409.84;4456808;32;33740;-79
2023/10/25 05:29:15;;;;;;;2.85;0.82;;;;;;;15.72;73.13;98410.25;4458469;32;33465;-79
2023/10/25 05:31:43;;;;;;;0.65;0.65;;;;;;;15.93;72.24;98415.53;4448112;32;33365;-79
2023/10/25 05:34:11;;;;;;;0.82;0.68;;;;;;;15.65;73.23;98417.06;4459131;32;34140;-79
2023/10/25 05:36:40;;;;;;;0.85;0.62;;;;;;;15.52;73.08;98423.41;4472911;31;33527;-79
2023/10/25 05:39:08;;;;;;;0.50;0.50;;;;;;;15.64;73.14;98426.88;4462148;32;33671;-79
2023/10/25 05:41:39;;;;;;;0.47;0.47;;;;;;;15.73;72.24;98434.06;4461680;32;33572;-79
2023/10/25 05:44:10;;;;;;;0.32;0.32;;;;;;;15.97;71.57;98440.91;4484146;31;34146;-78
2023/10/25 05:46:38;;;;;;;0.35;0.35;;;;;;;15.49;73.53;98450.28;4461154;32;33939;-79
2023/10/25 05:49:06;;;;;;;0.80;0.80;;;;;;;15.56;73.22;98455.91;4471535;32;32238;-78
2023/10/25 05:51:34;;;;;;;0.30;0.30;;;;;;;15.67;72.24;98455.91;4470104;32;34131;-78
2023/10/25 05:54:02;;;;;;;4.25;1.20;;;;;;;15.56;72.44;98456.75;4470361;32;35050;-78
2023/10/25 05:56:30;;;;;;;0.55;0.52;;;;;;;15.64;72.81;98468.63;4473754;32;32237;-79
2023/10/25 05:58:58;;;;;;;0.22;0.22;;;;;;;15.57;72.40;98471.78;4456538;32;34016;-79
2023/10/25 06:01:42;;;;;;;2.03;1.20;;;;;;;15.60;72.64;98490.13;4449333;32;33005;-78
2023/10/25 06:04:12;;;;;;;0.40;0.40;;;;;;;15.74;72.20;98481.00;4448818;32;32958;-79
2023/10/25 06:06:43;;;;;;;1.02;1.00;;;;;;;15.28;74.03;98505.28;4460389;32;33172;-80
2023/10/25 06:09:12;;;;;;;0.40;0.40;;;;;;;15.38;73.10;98516.84;4457165;32;32425;-79
2023/10/25 06:11:40;;;;;;;1.70;0.68;;;;;;;15.50;72.51;98523.81;4458958;32;34137;-78
2023/10/25 06:14:08;;;;;;;0.47;0.47;;;;;;;14.99;74.09;98527.16;4471156;32;33941;-78
2023/10/25 06:16:36;;;;;;;0.55;0.35;;;;;;;15.40;72.90;98541.50;4461249;32;35077;-78
2023/10/25 06:19:04;;;;;;;0.98;0.80;;;;;;;15.57;72.38;98542.75;4470525;32;33512;-79
2023/10/25 06:21:32;;;;;;;0.88;0.82;;;;;;;15.58;71.69;98566.56;4473587;32;34518;-79
2023/10/25 06:24:00;;;;;;;3.92;0.62;;;;;;;15.27;72.48;98568.28;4459301;32;33051;-80
2023/10/25 06:26:58;;;;;;;0.95;0.30;;;;;;;15.33;72.14;98570.44;4423675;32;33553;-78
2023/10/25 06:29:26;;;;;;;1.00;0.85;;;;;;;15.65;71.70;98566.09;4435061;32;34141;-79
2023/10/25 06:31:53;;;;;;;1.48;0.73;;;;;;;15.75;70.86;98559.84;4414193;32;31443;-79
2023/10/25 06:34:21;;;;;;;0.45;0.45;;;;;;;15.62;71.23;98573.34;4437451;32;33448;-79
2023/10/25 06:36:49;;;;;;;1.08;0.93;;;;;;;15.54;71.80;98583.75;4424998;32;33987;-79
2023/10/25 06:39:18;;;;;;;2.25;0.90;;;;;;;15.39;72.42;98587.72;4426352;32;32562;-79
2023/10/25 06:41:45;;;;;;;0.52;0.50;;;;;;;15.25;72.64;98588.84;4414500;32;33092;-79
2023/10/25 06:44:15;;;;;;;0.85;0.85;;;;;;;15.49;71.32;98593.09;4426609;32;34182;-79
2023/10/25 06:46:43;;;;;;;1.15;0.77;;;;;;;15.51;71.51;98597.31;4433396;32;33490;-79
2023/10/25 06:49:11;;;;;;;0.93;0.85;;;;;;;15.50;71.57;98574.34;4439883;32;32192;-79
2023/10/25 06:51:39;;;;;;;0.40;0.40;;;;;;;15.74;70.53;98573.28;4414094;32;32382;-79
2023/10/25 06:54:09;;;;;;;0.25;0.25;;;;;;;15.68;70.63;98571.16;4428946;32;31355;-79
2023/10/25 06:56:37;;;;;;;0.47;0.47;;;;;;;15.81;69.74;98577.97;4428210;32;33997;-79
2023/10/25 06:59:07;;;;;;;1.50;0.88;;;;;;;15.55;71.12;98565.97;4471174;32;34543;-79
2023/10/25 07:01:40;;;;;;;0.35;0.35;;;;;;;15.40;72.03;98557.47;4459787;32;32904;-79
2023/10/25 07:04:13;;;;;;;0.57;0.57;;;;;;;15.85;70.54;98563.41;4459625;32;34120;-79
2023/10/25 07:06:44;;;;;;;1.25;0.30;;;;;;;15.77;70.42;98568.56;4461096;32;32899;-79
2023/10/25 07:09:14;;;;;;;0.20;0.20;;;;;;;15.86;70.58;98572.28;4472338;32;33228;-78
2023/10/25 07:11:41;;;;;;;0.55;0.13;;;;;;;15.68;71.72;98574.66;4473016;32;32007;-79
2023/10/25 07:14:30;;;;;;;0.50;0.50;;;;;;;15.94;69.99;98577.75;4471995;32;34618;-79
2023/10/25 07:17:00;;;;;;;0.60;0.20;;;;;;;15.94;70.65;98582.25;4471108;32;33355;-79
2023/10/25 07:19:28;;;;;;;0.88;0.62;;;;;;;16.25;69.07;98565.34;4469993;32;32520;-79
2023/10/25 07:21:56;;;;;;;1.12;0.52;;;;;;;16.33;68.17;98556.66;4459413;32;32804;-79
2023/10/25 07:24:24;;;;;;;0.47;0.47;;;;;;;16.60;67.83;98564.91;4461398;32;34655;-79
2023/10/25 07:26:51;;;;;;;0.82;0.82;;;;;;;16.55;67.82;98561.81;4471871;32;32815;-79
2023/10/25 07:29:19;;;;;;;0.32;0.32;;;;;;;16.26;68.52;98556.38;4460450;32;32879;-79
2023/10/25 07:31:47;;;;;;;0.50;0.50;;;;;;;16.33;69.20;98562.00;4468057;32;34488;-79
2023/10/25 07:34:15;;;;;;;0.90;0.82;;;;;;;16.43;68.50;98562.91;4459961;32;33152;-79
2023/10/25 07:36:43;;;;;;;1.27;0.52;;;;;;;16.55;68.22;98556.47;4458642;32;34021;-79
2023/10/25 07:39:15;;;;;;;1.40;0.82;;;;;;;16.10;70.45;98572.84;4463277;32;32681;-79
2023/10/25 07:41:42;;;;;;;0.52;0.37;;;;;;;16.81;67.58;98585.38;4471133;32;32759;-79
2023/10/25 07:44:10;;;;;;;1.55;0.73;;;;;;;16.79;66.99;98589.97;4453089;32;33016;-79
2023/10/25 07:46:38;;;;;;;0.62;0.32;;;;;;;16.80;66.87;98607.66;4475787;32;33269;-79
2023/10/25 07:49:06;;;;;;;0.37;0.37;;;;;;;16.72;67.15;98610.16;4470976;32;33793;-79
2023/10/25 07:51:36;;;;;;;0.20;0.20;;;;;;;16.78;66.68;98614.94;4460722;32;33206;-80
2023/10/25 07:54:03;;;;;;;0.20;0.10;;;;;;;16.56;68.50;98613.28;4459514;32;34760;-80
2023/10/25 07:56:31;;;;;;;0.30;0.20;;;;;;;16.43;68.55;98616.19;4461119;32;33734;-80
2023/10/25 07:59:02;;;;;;;0.85;0.75;;;;;;;16.90;67.00;98608.50;4459248;32;31138;-79
2023/10/25 08:01:30;;;;;;;0.15;0.15;;;;;;;16.48;69.36;98629.94;4461249;32;33700;-79
2023/10/25 08:03:58;;;;;;;0.10;0.10;;;;;;;17.15;66.03;98629.37;4459415;32;34097;-79
2023/10/25 08:06:26;;;;;;;0.37;0.37;;;;;;;17.15;65.79;98632.03;4461275;32;33540;-79
2023/10/25 08:08:53;;;;;;;1.12;1.02;;;;;;;17.02;65.33;98644.78;4472973;32;33436;-79
2023/10/25 08:11:21;;;;;;;0.47;0.47;;;;;;;17.37;64.65;98648.78;4459388;32;32437;-79
2023/10/25 08:13:49;;;;;;;0.10;0.10;;;;;;;17.57;63.66;98649.66;4472102;32;33882;-78
2023/10/25 08:16:17;;;;;;;0.13;0.13;;;;;;;17.07;64.74;98642.53;4450144;32;32264;-79
2023/10/25 08:18:45;;;;;;;0.17;0.17;;;;;;;17.02;65.33;98650.09;4447005;32;32672;-79
2023/10/25 08:21:13;;;;;;;0.13;0.13;;;;;;;17.18;65.26;98644.25;4468859;32;33027;-79
2023/10/25 08:23:41;;;;;;;0.10;0.00;;;;;;;17.10;65.25;98642.28;4458028;32;34079;-79
2023/10/25 08:26:09;;;;;;;0.20;0.20;;;;;;;17.34;64.64;98636.56;4471615;32;33555;-79
2023/10/25 08:28:40;;;;;;;1.95;0.73;;;;;;;17.42;63.97;98630.53;4470716;32;33725;-79
2023/10/25 08:31:12;;;;;;;1.37;0.98;;;;;;;17.30;65.58;98642.31;4457271;32;34769;-79
2023/10/25 08:33:42;;;;;;;0.00;0.00;;;;;;;17.83;62.75;98640.12;4460569;32;34623;-79
2023/10/25 08:36:09;;;;;;;0.20;0.20;;;;;;;17.88;63.36;98666.41;4470774;32;32596;-79
2023/10/25 08:38:37;;;;;;;0.65;0.65;;;;;;;17.37;63.68;98675.44;4469584;32;33428;-79
2023/10/25 08:41:06;;;;;;;0.47;0.30;;;;;;;17.39;63.88;98685.03;4470697;32;34858;-79
2023/10/25 08:43:35;;;;;;;0.05;0.05;;;;;;;17.57;63.87;98687.88;4460495;32;33297;-79
2023/10/25 08:46:03;;;;;;;0.32;0.32;;;;;;;17.76;64.19;98712.94;4471056;32;33648;-79
2023/10/25 08:48:32;;;;;;;0.43;0.43;;;;;;;17.94;62.16;98711.25;4459346;32;33014;-79
2023/10/25 08:51:00;;;;;;;0.20;0.10;;;;;;;17.91;62.82;98716.88;4470336;32;33904;-79
2023/10/25 08:53:29;;;;;;;0.17;0.17;;;;;;;17.81;62.54;98726.72;4473049;32;34128;-79
2023/10/25 08:55:58;;;;;;;0.32;0.30;;;;;;;17.73;62.29;98723.84;4469888;32;33068;-79
2023/10/25 08:58:26;;;;;;;0.75;0.75;;;;;;;17.42;63.18;98721.25;4485729;31;31907;-79
2023/10/25 09:00:55;;;;;;;0.65;0.65;;;;;;;17.35;63.09;98730.78;4473817;32;34650;-79
2023/10/25 09:03:32;;;;;;;0.43;0.40;;;;;;;17.68;61.99;98732.28;4471829;32;34027;-79
2023/10/25 09:06:01;;;;;;;0.10;0.10;;;;;;;17.78;63.06;98725.16;4473006;32;33644;-80
2023/10/25 09:08:33;;;;;;;0.20;0.20;;;;;;;17.92;62.58;98734.59;4460657;32;33584;-79
2023/10/25 09:11:05;;;;;;;0.30;0.30;;;;;;;17.89;62.04;98751.72;4474209;32;33462;-79
2023/10/25 09:13:35;;;;;;;0.32;0.20;;;;;;;17.97;60.92;98759.03;4466702;32;34432;-79
2023/10/25 09:16:07;;;;;;;0.28;0.28;;;;;;;17.75;61.79;98764.63;4461046;32;35716;-79
2023/10/25 09:18:37;;;;;;;0.22;0.20;;;;;;;17.86;61.58;98762.69;4472350;32;34198;-80
2023/10/25 09:21:06;;;;;;;0.00;0.00;;;;;;;18.42;61.57;98764.69;4459316;32;36351;-79
2023/10/25 09:23:40;;;;;;;0.55;0.40;;;;;;;18.28;60.76;98774.97;4474386;32;33757;-79
2023/10/25 09:26:15;;;;;;;0.10;0.10;;;;;;;18.17;nan;98776.75;4463891;32;33275;-78
2023/10/25 09:28:45;;;;;;;0.22;0.20;;;;;;;18.51;59.88;98779.00;4447953;32;32869;-78
2023/10/25 09:31:25;;;;;;;5.05;0.43;;;;;;;18.42;60.03;98779.88;4462918;32;33839;-78
2023/10/25 09:33:57;;;;;;;0.43;0.43;;;;;;;18.45;59.86;98776.91;4464916;32;33981;-78
2023/10/25 09:36:28;;;;;;;0.10;0.10;;;;;;;18.27;61.42;98787.47;4461218;32;32500;-78
2023/10/25 09:38:56;;;;;;;0.43;0.30;;;;;;;18.44;60.46;98783.25;4471222;32;32001;-78
2023/10/25 09:41:26;;;;;;;0.57;0.57;;;;;;;18.20;59.90;98780.16;4458241;32;33865;-78
2023/10/25 09:43:59;;;;;;;0.40;0.40;;;;;;;18.08;60.60;98772.25;4472212;32;33734;-78
2023/10/25 09:46:30;;;;;;;0.00;0.00;;;;;;;18.00;61.80;98780.16;4474393;32;32559;-78
2023/10/25 09:49:03;;;;;;;1.02;0.93;;;;;;;18.08;61.59;98788.28;4461665;32;33163;-79
2023/10/25 09:51:38;;;;;;;0.32;0.32;;;;;;;18.21;60.49;98784.50;4473604;32;34132;-78
2023/10/25 09:54:11;;;;;;;0.62;0.37;;;;;;;18.84;60.33;98774.19;4461257;32;33466;-79
2023/10/25 09:56:40;;;;;;;0.20;0.20;;;;;;;18.84;60.18;98777.72;4460949;32;32788;-78
2023/10/25 09:59:10;;;;;;;0.25;0.20;;;;;;;18.89;59.79;98766.59;4461844;32;34563;-78
2023/10/25 10:01:39;;;;;;;0.20;0.20;;;;;;;19.24;57.53;98765.94;4473934;32;31959;-78
2023/10/25 10:04:17;;;;;;;0.10;0.10;;;;;;;19.47;57.29;98766.37;4473119;32;34139;-78
2023/10/25 10:07:12;;;;;;;0.20;0.10;;;;;;;19.51;56.47;98757.03;4470602;32;34147;-79
2023/10/25 10:09:55;;;;;;;0.00;0.00;;;;;;;19.72;58.23;98769.38;4472763;31;33848;-78
2023/10/25 10:12:22;;;;;;;1.10;0.20;;;;;;;19.86;56.16;98769.72;4474366;32;31969;-78
2023/10/25 10:14:52;;;;;;;0.10;0.10;;;;;;;20.39;54.37;98768.03;4460480;32;34521;-79
2023/10/25 10:17:20;;;;;;;0.13;0.13;;;;;;;20.61;54.48;98778.31;4474169;32;32406;-79
2023/10/25 10:19:49;;;;;;;0.28;0.22;;;;;;;20.85;52.91;98766.91;4460008;32;33802;-79
2023/10/25 10:22:18;;;;;;;0.37;0.28;;;;;;;20.75;52.41;98768.88;4459623;32;32876;-78
2023/10/25 10:24:56;;;;;;;0.08;0.08;;;;;;;20.44;52.18;98768.41;4461322;32;34389;-79
2023/10/25 10:27:40;;;;;;;0.10;0.10;;;;;;;20.41;52.65;98766.03;4473641;32;33277;-79
2023/10/25 10:30:37;;;;;;;0.30;0.20;;;;;;;20.83;52.57;98763.53;4477581;32;32551;-79
2023/10/25 10:33:14;;;;;;;0.20;0.20;;;;;;;20.98;50.48;98761.13;4456085;32;33693;-78
2023/10/25 10:35:49;;;;;;;0.00;0.00;;;;;;;20.73;51.50;98756.59;4449800;32;33530;-79
2023/10/25 10:38:17;;;;;;;0.20;0.20;;;;;;;20.66;51.47;98754.56;4474927;32;33680;-79
2023/10/25 10:40:51;;;;;;;0.20;0.05;;;;;;;20.41;53.13;98760.66;4460106;32;34333;-79
2023/10/25 10:43:20;;;;;;;0.00;0.00;;;;;;;21.05;50.93;98748.75;4460196;32;32835;-79
2023/10/25 10:45:51;;;;;;;0.15;0.15;;;;;;;21.28;50.39;98748.22;4471604;32;34289;-79
2023/10/25 10:48:27;;;;;;;0.30;0.30;;;;;;;21.33;50.08;98744.06;4473801;32;33648;-78
2023/10/25 10:50:55;;;;;;;0.45;0.45;;;;;;;21.15;52.13;98746.78;4470928;32;33070;-79
2023/10/25 10:53:22;;;;;;;0.35;0.35;;;;;;;21.63;48.75;98739.97;4473678;32;34638;-79
2023/10/25 10:55:50;;;;;;;0.00;0.00;;;;;;;21.69;48.22;98735.78;4474250;32;34024;-79
2023/10/25 10:58:18;;;;;;;0.22;0.22;;;;;;;21.43;48.53;98735.87;4458648;32;32635;-79
2023/10/25 11:00:46;;;;;;;0.10;0.10;;;;;;;21.10;49.83;98743.75;4471677;32;34310;-79
2023/10/25 11:03:15;;;;;;;0.10;0.10;;;;;;;21.07;49.60;98735.16;4472966;32;34476;-79
2023/10/25 11:05:43;;;;;;;0.20;0.10;;;;;;;20.91;50.01;98735.94;4461091;32;32429;-79
2023/10/25 11:08:13;;;;;;;0.28;0.28;;;;;;;20.90;50.58;98728.87;4471083;32;33552;-79
2023/10/25 11:10:42;;;;;;;0.20;0.20;;;;;;;21.12;50.65;98735.53;4470593;32;33863;-79
2023/10/25 11:13:09;;;;;;;0.70;0.05;;;;;;;21.11;50.23;98741.91;4461313;32;32749;-79
2023/10/25 11:15:40;;;;;;;0.55;0.20;;;;;;;21.22;49.48;98736.25;4471781;32;33778;-79
2023/10/25 11:18:09;;;;;;;0.00;0.00;;;;;;;21.30;49.93;98725.56;4461012;32;32839;-79
2023/10/25 11:20:39;;;;;;;0.10;0.10;;;;;;;21.94;47.89;98717.91;4471217;32;34258;-81
2023/10/25 11:23:07;;;;;;;0.10;0.10;;;;;;;21.63;48.91;98709.59;4460808;32;33751;-80
2023/10/25 11:25:36;;;;;;;0.30;0.30;;;;;;;21.04;48.18;98720.25;4464204;32;34173;-81
2023/10/25 11:28:04;;;;;;;1.45;0.20;;;;;;;21.81;47.87;98712.16;4472325;32;32937;-79
2023/10/25 11:30:34;;;;;;;0.10;0.05;;;;;;;22.09;46.73;98708.16;4461342;32;34525;-79
2023/10/25 11:33:03;;;;;;;0.08;0.00;;;;;;;21.77;46.45;98711.63;4473813;32;33350;-79
2023/10/25 11:35:32;;;;;;;0.15;0.15;;;;;;;22.01;46.77;98718.06;4457423;32;34154;-79
2023/10/25 11:38:00;;;;;;;0.17;0.17;;;;;;;22.37;45.60;98719.47;4461418;32;32627;-79
2023/10/25 11:40:45;;;;;;;0.43;0.25;;;;;;;22.69;45.31;98718.59;4461092;32;30813;-80
2023/10/25 11:43:14;;;;;;;0.22;0.22;;;;;;;22.48;44.41;98731.72;4471927;32;34676;-80